createdAt,value
2018-01-15T00:02:41.321Z,-3.50
2018-01-15T00:07:44.170Z,-3.20
2018-01-15T00:12:46.926Z,-3.00
2018-01-15T00:17:50.270Z,-3.00
2018-01-15T00:22:52.899Z,-2.90
2018-01-15T00:27:56.269Z,-2.90
2018-01-15T00:32:59.055Z,-3.00
2018-01-15T00:38:02.403Z,-2.90
2018-01-15T00:43:05.173Z,-2.90
2018-01-15T00:48:09.059Z,-2.90
2018-01-15T00:53:11.814Z,-2.90
2018-01-15T00:58:15.003Z,-2.90
2018-01-15T01:03:18.404Z,-2.80
2018-01-15T01:08:21.354Z,-2.80
2018-01-15T01:13:23.993Z,-2.80
2018-01-15T01:18:27.582Z,-2.80
2018-01-15T01:23:30.300Z,-2.70
2018-01-15T01:28:33.631Z,-2.60
2018-01-15T01:33:36.380Z,-2.60
2018-01-15T01:38:39.739Z,-2.70
2018-01-15T01:43:42.394Z,-2.70
2018-01-15T01:49:01.577Z,-2.70
2018-01-15T01:54:04.296Z,-2.60
2018-01-15T01:59:07.634Z,-2.60
2018-01-15T02:04:10.400Z,-2.60
2018-01-15T02:09:13.617Z,-2.60
2018-01-15T02:14:16.578Z,-2.70
2018-01-15T02:19:19.797Z,-2.60
2018-01-15T02:24:22.516Z,-2.60
2018-01-15T02:29:26.287Z,-2.70
2018-01-15T02:34:28.944Z,-2.70
2018-01-15T02:39:33.240Z,-2.70
2018-01-15T02:44:35.886Z,-2.70
2018-01-15T02:49:40.335Z,-2.60
2018-01-15T02:54:43.065Z,-2.60
2018-01-15T02:59:46.396Z,-2.60
2018-01-15T03:04:49.257Z,-2.60
2018-01-15T03:09:52.696Z,-2.60
2018-01-15T03:14:55.331Z,-2.50
2018-01-15T03:19:58.175Z,-2.60
2018-01-15T03:25:00.788Z,-2.50
2018-01-15T03:30:04.436Z,-2.50
2018-01-15T03:35:07.194Z,-2.50
2018-01-15T03:40:10.709Z,-2.40
2018-01-15T03:45:14.099Z,-2.40
2018-01-15T03:50:17.058Z,-2.40
2018-01-15T03:55:19.741Z,-2.40
2018-01-15T04:00:23.153Z,-2.40
2018-01-15T04:05:25.785Z,-2.30
2018-01-15T04:10:29.016Z,-2.40
2018-01-15T04:15:31.871Z,-2.20
2018-01-15T04:20:35.316Z,-2.30
2018-01-15T04:25:37.994Z,-2.40
2018-01-15T04:30:41.026Z,-2.30
2018-01-15T04:35:43.677Z,-2.30
2018-01-15T04:40:48.069Z,-2.20
2018-01-15T04:45:50.728Z,-2.20
2018-01-15T04:50:54.658Z,-2.20
2018-01-15T04:55:58.077Z,-2.00
2018-01-15T05:01:00.771Z,-2.10
2018-01-15T05:06:04.206Z,-2.10
2018-01-15T05:11:07.035Z,-2.10
2018-01-15T05:16:09.658Z,-2.00
2018-01-15T05:21:13.275Z,-2.00
2018-01-15T05:26:15.951Z,-2.10
2018-01-15T05:31:19.556Z,-2.10
2018-01-15T05:36:22.169Z,-2.20
2018-01-15T05:41:24.895Z,-2.30
2018-01-15T05:46:27.509Z,-2.30
2018-01-15T05:51:30.998Z,-2.50
2018-01-15T05:56:33.857Z,-2.60
2018-01-15T06:01:37.432Z,-2.70
2018-01-15T06:06:40.120Z,-2.70
2018-01-15T06:11:43.725Z,-2.70
2018-01-15T06:16:46.510Z,-2.80
2018-01-15T06:21:50.097Z,-2.70
2018-01-15T06:26:53.533Z,-2.80
2018-01-15T06:31:57.345Z,-2.80
2018-01-15T06:37:00.001Z,-2.80
2018-01-15T06:42:03.543Z,-2.80
2018-01-15T06:47:06.216Z,-2.80
2018-01-15T06:52:09.011Z,-2.90
2018-01-15T06:57:11.674Z,-2.90
2018-01-15T07:02:15.325Z,-2.80
2018-01-15T07:07:18.056Z,-2.80
2018-01-15T07:12:21.316Z,-2.70
2018-01-15T07:17:24.795Z,-2.60
2018-01-15T07:22:28.266Z,-2.60
2018-01-15T07:27:30.909Z,-2.40
2018-01-15T07:32:34.199Z,-2.60
2018-01-15T07:37:37.081Z,-2.60
2018-01-15T07:42:41.134Z,-2.50
2018-01-15T07:47:43.785Z,-2.50
2018-01-15T07:52:46.485Z,-2.30
2018-01-15T07:57:49.146Z,-2.30
2018-01-15T08:02:58.839Z,-2.10
2018-01-15T08:08:04.547Z,-2.10
2018-01-15T08:13:07.606Z,-1.80
2018-01-15T08:18:10.256Z,-1.70
2018-01-15T08:23:13.842Z,-1.50
2018-01-15T08:28:17.621Z,-1.50
2018-01-15T08:33:21.046Z,-1.20
2018-01-15T08:38:23.720Z,-1.00
2018-01-15T08:43:27.238Z,-0.70
2018-01-15T08:48:29.947Z,-0.50
2018-01-15T08:53:33.410Z,-0.20
2018-01-15T08:58:36.050Z,0.20
2018-01-15T09:03:39.776Z,1.10
2018-01-15T09:08:43.178Z,1.50
2018-01-15T09:13:46.552Z,1.50
2018-01-15T09:18:49.198Z,1.70
2018-01-15T09:23:52.702Z,2.70
2018-01-15T09:28:55.361Z,2.70
2018-01-15T09:33:58.773Z,2.90
2018-01-15T09:39:01.415Z,3.40
2018-01-15T09:44:04.805Z,3.50
2018-01-15T09:49:07.487Z,3.50
2018-01-15T09:54:11.083Z,3.60
2018-01-15T09:59:14.602Z,4.50
2018-01-15T10:04:18.774Z,3.90
2018-01-15T10:09:21.382Z,3.90
2018-01-15T10:14:24.092Z,4.20
2018-01-15T10:19:26.758Z,4.70
2018-01-15T10:24:29.960Z,4.50
2018-01-15T10:29:32.679Z,4.80
2018-01-15T10:34:35.783Z,5.20
2018-01-15T10:39:38.477Z,4.60
2018-01-15T10:44:41.571Z,5.10
2018-01-15T10:49:44.230Z,5.30
2018-01-15T10:54:47.914Z,4.80
2018-01-15T10:59:50.588Z,4.70
2018-01-15T11:04:54.969Z,5.10
2018-01-15T11:09:57.633Z,5.10
2018-01-15T11:15:00.928Z,4.60
2018-01-15T11:20:04.343Z,5.20
2018-01-15T11:25:08.098Z,5.70
2018-01-15T11:30:10.791Z,5.60
2018-01-15T11:35:13.899Z,5.70
2018-01-15T11:40:16.562Z,6.10
2018-01-15T11:45:20.866Z,6.30
2018-01-15T11:50:23.526Z,6.30
2018-01-15T11:55:27.181Z,6.40
2018-01-15T12:00:29.824Z,6.40
2018-01-15T12:05:33.213Z,6.00
2018-01-15T12:10:35.822Z,7.40
2018-01-15T12:15:39.183Z,6.30
2018-01-15T12:20:42.583Z,6.70
2018-01-15T12:25:46.166Z,7.60
2018-01-15T12:30:48.806Z,7.60
2018-01-15T12:35:53.076Z,6.90
2018-01-15T12:40:55.742Z,6.80
2018-01-15T12:45:59.975Z,5.50
2018-01-15T12:51:02.601Z,5.50
2018-01-15T12:56:05.320Z,6.20
2018-01-15T13:01:07.974Z,6.20
2018-01-15T13:06:12.354Z,5.70
2018-01-15T13:11:14.981Z,5.80
2018-01-15T13:16:18.465Z,5.90
2018-01-15T13:21:21.126Z,6.40
2018-01-15T13:26:24.607Z,5.50
2018-01-15T13:31:27.278Z,6.10
2018-01-15T13:36:30.898Z,6.70
2018-01-15T13:41:33.542Z,5.40
2018-01-15T13:46:36.972Z,5.70
2018-01-15T13:51:39.710Z,4.50
2018-01-15T13:56:43.000Z,6.10
2018-01-15T14:01:45.643Z,5.50
2018-01-15T14:06:49.273Z,5.30
2018-01-15T14:11:51.910Z,4.30
2018-01-15T14:16:55.204Z,4.00
2018-01-15T14:21:57.818Z,4.00
2018-01-15T14:27:02.207Z,4.30
2018-01-15T14:32:04.871Z,4.30
2018-01-15T14:37:09.236Z,3.00
2018-01-15T14:42:11.910Z,3.00
2018-01-15T14:47:16.287Z,2.50
2018-01-15T14:52:18.954Z,2.50
2018-01-15T14:57:22.534Z,1.90
2018-01-15T15:02:25.945Z,1.60
2018-01-15T15:07:29.227Z,1.50
2018-01-15T15:12:32.029Z,1.50
2018-01-15T15:17:35.722Z,1.40
2018-01-15T15:22:38.397Z,1.30
2018-01-15T15:27:41.563Z,1.20
2018-01-15T15:32:44.269Z,1.00
2018-01-15T15:37:47.681Z,1.00
2018-01-15T15:42:50.348Z,0.90
2018-01-15T15:47:53.697Z,1.00
2018-01-15T15:52:56.404Z,0.90
2018-01-15T15:57:59.796Z,0.90
2018-01-15T16:03:03.337Z,0.70
2018-01-15T16:08:06.025Z,0.70
2018-01-15T16:13:09.553Z,0.70
2018-01-15T16:18:12.213Z,0.60
2018-01-15T16:23:14.868Z,0.60
2018-01-15T16:28:17.953Z,0.50
2018-01-15T16:33:20.742Z,0.40
2018-01-15T16:38:24.542Z,0.50
2018-01-15T16:43:27.195Z,0.50
2018-01-15T16:48:30.558Z,0.40
2018-01-15T16:53:33.202Z,0.30
2018-01-15T16:58:36.321Z,0.30
2018-01-15T17:03:39.012Z,0.30
2018-01-15T17:08:42.445Z,0.30
2018-01-15T17:13:45.103Z,0.30
2018-01-15T17:18:48.753Z,0.40
2018-01-15T17:23:51.474Z,0.30
2018-01-15T17:28:54.977Z,0.30
2018-01-15T17:33:57.774Z,0.30
2018-01-15T17:39:01.081Z,0.30
2018-01-15T17:44:04.499Z,0.20
2018-01-15T17:49:08.124Z,0.20
2018-01-15T17:54:10.776Z,0.30
2018-01-15T17:59:13.956Z,0.30
2018-01-15T18:04:16.599Z,0.40
2018-01-15T18:09:20.056Z,0.40
2018-01-15T18:14:22.777Z,0.50
2018-01-15T18:19:26.165Z,0.60
2018-01-15T18:24:29.590Z,0.60
2018-01-15T18:29:33.316Z,0.60
2018-01-15T18:34:35.962Z,0.60
2018-01-15T18:39:39.348Z,0.60
2018-01-15T18:44:41.996Z,0.60
2018-01-15T18:49:44.939Z,0.60
2018-01-15T18:54:47.649Z,0.50
2018-01-15T18:59:51.162Z,0.60
2018-01-15T19:04:53.878Z,0.60
2018-01-15T19:09:56.658Z,0.80
2018-01-15T19:14:59.302Z,0.90
2018-01-15T19:20:02.098Z,0.90
2018-01-15T19:25:04.756Z,1.00
2018-01-15T19:30:08.315Z,1.00
2018-01-15T19:40:46.914Z,1.00
2018-01-15T19:45:55.261Z,1.10
2018-01-15T19:51:03.830Z,1.10
2018-01-15T19:56:12.356Z,1.10
2018-01-15T20:01:20.899Z,1.00
2018-01-15T20:06:30.604Z,1.10
2018-01-15T20:11:33.367Z,1.10
2018-01-15T20:16:36.936Z,1.20
2018-01-15T20:21:39.581Z,1.10
2018-01-15T20:26:43.768Z,1.20
2018-01-15T20:31:46.523Z,1.10
2018-01-15T20:36:50.599Z,1.10
2018-01-15T20:41:53.357Z,1.10
2018-01-15T20:46:56.694Z,1.10
2018-01-15T20:51:59.659Z,1.10
2018-01-15T20:57:03.823Z,1.30
2018-01-15T21:02:06.510Z,1.30
2018-01-15T21:07:11.674Z,1.20
2018-01-15T21:12:14.582Z,1.20
2018-01-15T21:17:18.165Z,1.30
2018-01-15T21:22:20.852Z,1.20
2018-01-15T21:27:25.649Z,1.20
2018-01-15T21:32:29.473Z,1.20
2018-01-15T21:37:32.598Z,1.30
2018-01-15T21:42:35.438Z,1.30
2018-01-15T21:47:38.366Z,1.30
2018-01-15T21:52:41.211Z,1.30
2018-01-15T21:57:44.137Z,1.20
2018-01-15T22:02:47.114Z,1.20
2018-01-15T22:07:50.611Z,1.20
2018-01-15T22:12:54.248Z,1.00
2018-01-15T22:17:58.698Z,1.10
2018-01-15T22:23:01.496Z,1.00
2018-01-15T22:28:04.302Z,1.00
2018-01-15T22:33:07.108Z,1.00
2018-01-15T22:38:10.214Z,1.00
2018-01-15T22:43:13.549Z,1.00
2018-01-15T22:48:16.656Z,1.00
2018-01-15T22:53:19.546Z,1.00
2018-01-15T22:58:23.081Z,1.00
2018-01-15T23:03:25.730Z,1.00
2018-01-15T23:08:28.790Z,1.00
2018-01-15T23:13:31.530Z,0.90
2018-01-15T23:18:34.585Z,0.90
2018-01-15T23:23:37.256Z,0.90
2018-01-15T23:28:40.523Z,1.00
2018-01-15T23:33:43.177Z,1.10
2018-01-15T23:38:47.450Z,1.10
2018-01-15T23:43:50.254Z,1.00
2018-01-15T23:48:53.507Z,1.10
2018-01-15T23:53:56.275Z,1.20
2018-01-15T23:58:59.719Z,1.20
